KACY

Atlantic City International Airport

Atlantic City, New Jersey, USA
KACY 181213Z 1812/1912 20008KT P6SM SCT030 FM181900 20011KT P6SM SCT150 FM190300 23007KT P6SM SCT150 FM190700 24007KT P6SM BKN100 FM191000 27007KT P6SM BKN080
Issued Valid From Valid To
Jun-18 @ 12:13 UTC
(an hour ago)
Jun-18 @ 12:00 UTC
(an hour ago)
Jun-19 @ 12:00 UTC
(in 23 hours)
Jun-18 @ 12:00 to Jun-18 @ 19:00
KACY 181213Z 1812/1912 20008KT P6SM SCT030
Wind Visibility Clouds
200° at 8 knots Greater than 6 miles
  • Scattered at 3,000' AGL
From Jun-18 @ 19:00 to Jun-19 @ 03:00
FM181900 20011KT P6SM SCT150
Wind Visibility Clouds
200° at 11 knots Greater than 6 miles
  • Scattered at 15,000' AGL
From Jun-19 @ 03:00 to Jun-19 @ 07:00
FM190300 23007KT P6SM SCT150
Wind Visibility Clouds
230° at 7 knots Greater than 6 miles
  • Scattered at 15,000' AGL
From Jun-19 @ 07:00 to Jun-19 @ 10:00
FM190700 24007KT P6SM BKN100
Wind Visibility Clouds
240° at 7 knots Greater than 6 miles
  • Broken at 10,000' AGL
From Jun-19 @ 10:00 to Jun-19 @ 12:00
FM191000 27007KT P6SM BKN080
Wind Visibility Clouds
270° at 7 knots Greater than 6 miles
  • Broken at 8,000' AGL
KACY 181213Z 1812/1912 20008KT P6SM SCT030 FM181900 20011KT P6SM SCT150 FM190300 23007KT P6SM SCT150 FM190700 24007KT P6SM BKN100 FM191000 27007KT P6SM BKN080
Issued Jun-18 @ 12:13 UTC
(an hour ago)
Valid From Jun-18 @ 12:00 UTC
(an hour ago)
Valid To Jun-19 @ 12:00 UTC
(in 23 hours)
Jun-18 @ 12:00 - Jun-18 @ 19:00
Wind Visibility
200° at 8 knots Greater than 6 miles
Clouds
  • Scattered at 3,000' AGL
From Jun-18 @ 19:00 - Jun-19 @ 03:00
Wind Visibility
200° at 11 knots Greater than 6 miles
Clouds
  • Scattered at 15,000' AGL
From Jun-19 @ 03:00 - Jun-19 @ 07:00
Wind Visibility
230° at 7 knots Greater than 6 miles
Clouds
  • Scattered at 15,000' AGL
From Jun-19 @ 07:00 - Jun-19 @ 10:00
Wind Visibility
240° at 7 knots Greater than 6 miles
Clouds
  • Broken at 10,000' AGL
From Jun-19 @ 10:00 - Jun-19 @ 12:00
Wind Visibility
270° at 7 knots Greater than 6 miles
Clouds
  • Broken at 8,000' AGL